createdAt,value
2023-05-15T00:02:27.977Z,101108.41
2023-05-15T00:04:55.266Z,101064.31
2023-05-15T00:07:22.339Z,101072.50
2023-05-15T00:09:49.342Z,101114.50
2023-05-15T00:12:16.322Z,101109.00
2023-05-15T00:14:43.399Z,101059.47
2023-05-15T00:17:10.561Z,101133.47
2023-05-15T00:19:37.563Z,101144.50
2023-05-15T00:22:04.802Z,101124.09
2023-05-15T00:24:31.932Z,101110.16
2023-05-15T00:27:00.431Z,101129.81
2023-05-15T00:29:28.003Z,101137.97
2023-05-15T00:31:55.196Z,101134.66
2023-05-15T00:34:25.859Z,101129.31
2023-05-15T00:36:53.014Z,101118.06
2023-05-15T00:39:20.082Z,101143.81
2023-05-15T00:41:49.970Z,101132.66
2023-05-15T00:44:20.151Z,101133.03
2023-05-15T00:46:48.811Z,101131.56
2023-05-15T00:49:18.639Z,101097.75
2023-05-15T00:51:46.306Z,101102.16
2023-05-15T00:54:13.522Z,101105.44
2023-05-15T00:56:44.973Z,101107.22
2023-05-15T00:59:13.677Z,101091.22
2023-05-15T01:01:40.803Z,101054.94
2023-05-15T01:04:08.025Z,101090.94
2023-05-15T01:06:35.066Z,101083.53
2023-05-15T01:09:04.059Z,101086.00
2023-05-15T01:11:36.045Z,101061.06
2023-05-15T01:14:06.077Z,101072.69
2023-05-15T01:16:34.145Z,101094.38
2023-05-15T01:19:04.578Z,101085.50
2023-05-15T01:21:34.768Z,101089.66
2023-05-15T01:24:20.444Z,101094.59
2023-05-15T01:27:20.898Z,101086.81
2023-05-15T01:29:57.220Z,101093.78
2023-05-15T01:32:38.264Z,101100.97
2023-05-15T01:35:08.601Z,101090.63
2023-05-15T01:37:41.746Z,101083.34
2023-05-15T01:40:11.999Z,101071.69
2023-05-15T01:42:46.654Z,101085.91
2023-05-15T01:45:17.402Z,101082.47
2023-05-15T01:47:46.493Z,101082.94
2023-05-15T01:50:15.984Z,101069.53
2023-05-15T01:52:56.694Z,101067.75
2023-05-15T01:55:27.886Z,101086.00
2023-05-15T01:57:56.915Z,101099.09
2023-05-15T02:00:25.527Z,101103.84
2023-05-15T02:02:53.656Z,101079.84
2023-05-15T02:05:21.043Z,101080.56
2023-05-15T02:07:48.651Z,101080.28
2023-05-15T02:10:18.554Z,101082.06
2023-05-15T02:12:50.237Z,101061.44
2023-05-15T02:15:18.718Z,101057.88
2023-05-15T02:17:47.094Z,101042.03
2023-05-15T02:20:14.523Z,101046.47
2023-05-15T02:22:41.646Z,101049.63
2023-05-15T02:25:09.077Z,101002.56
2023-05-15T02:27:46.999Z,101056.03
2023-05-15T02:30:43.557Z,101053.75
2023-05-15T02:33:17.478Z,101048.19
2023-05-15T02:35:57.131Z,101055.31
2023-05-15T02:38:29.586Z,101059.22
2023-05-15T02:40:58.159Z,101039.72
2023-05-15T02:43:26.462Z,101019.13
2023-05-15T02:45:56.432Z,101049.00
2023-05-15T02:48:24.726Z,101051.75
2023-05-15T02:50:53.406Z,101050.34
2023-05-15T02:53:20.633Z,101036.06
2023-05-15T02:55:48.111Z,101046.13
2023-05-15T02:58:15.258Z,101035.81
2023-05-15T03:00:42.354Z,101053.75
2023-05-15T03:03:09.406Z,101066.56
2023-05-15T03:05:36.513Z,101061.38
2023-05-15T03:08:03.484Z,101089.41
2023-05-15T03:10:48.889Z,101089.41
2023-05-15T03:13:16.094Z,101084.47
2023-05-15T03:15:45.524Z,101101.84
2023-05-15T03:18:12.728Z,101100.28
2023-05-15T03:20:39.930Z,101085.09
2023-05-15T03:23:07.035Z,101065.97
2023-05-15T03:25:34.220Z,101096.94
2023-05-15T03:28:01.347Z,101099.31
2023-05-15T03:30:28.461Z,101076.03
2023-05-15T03:32:57.648Z,101089.56
2023-05-15T03:35:26.341Z,101065.50
2023-05-15T03:37:53.607Z,101065.69
2023-05-15T03:40:20.605Z,101075.66
2023-05-15T03:42:47.614Z,101063.41
2023-05-15T03:45:14.692Z,101057.69
2023-05-15T03:47:42.963Z,101055.63
2023-05-15T03:50:10.605Z,101029.91
2023-05-15T03:52:39.536Z,101060.25
2023-05-15T03:55:07.582Z,101061.84
2023-05-15T03:57:35.866Z,101051.78
2023-05-15T04:00:07.441Z,101040.94
2023-05-15T04:02:40.710Z,101039.56
2023-05-15T04:05:08.883Z,101050.72
2023-05-15T04:07:36.915Z,101078.00
2023-05-15T04:10:04.349Z,101071.09
2023-05-15T04:12:34.674Z,101061.94
2023-05-15T04:15:19.260Z,101061.84
2023-05-15T04:17:48.192Z,101056.72
2023-05-15T04:20:16.997Z,101055.44
2023-05-15T04:22:48.014Z,101030.31
2023-05-15T04:25:16.402Z,101086.88
2023-05-15T04:27:43.924Z,101074.66
2023-05-15T04:30:11.978Z,101072.00
2023-05-15T04:32:40.034Z,101085.13
2023-05-15T04:35:12.550Z,101069.34
2023-05-15T04:37:40.894Z,101083.94
2023-05-15T04:40:09.312Z,101077.81
2023-05-15T04:42:39.242Z,101087.09
2023-05-15T04:45:08.041Z,101066.97
2023-05-15T04:47:35.695Z,101095.97
2023-05-15T04:50:03.084Z,101081.38
2023-05-15T04:52:30.476Z,101062.22
2023-05-15T04:54:57.606Z,101048.06
2023-05-15T04:57:25.846Z,101093.09
2023-05-15T04:59:53.237Z,101118.81
2023-05-15T05:02:22.641Z,101124.53
2023-05-15T05:04:50.027Z,101061.03
2023-05-15T05:07:17.355Z,101075.91
2023-05-15T05:09:45.016Z,101117.72
2023-05-15T05:12:12.132Z,101132.53
2023-05-15T05:14:40.791Z,101120.09
2023-05-15T05:17:08.055Z,101106.34
2023-05-15T05:19:35.082Z,101123.53
2023-05-15T05:22:05.164Z,101113.56
2023-05-15T05:24:32.750Z,101135.69
2023-05-15T05:27:00.399Z,101127.78
2023-05-15T05:29:27.643Z,101123.56
2023-05-15T05:31:54.871Z,101135.63
2023-05-15T05:34:22.623Z,101125.94
2023-05-15T05:36:50.224Z,101125.84
2023-05-15T05:39:18.076Z,101107.19
2023-05-15T05:41:45.535Z,101135.97
2023-05-15T05:44:12.703Z,101156.09
2023-05-15T05:46:39.779Z,101143.06
2023-05-15T05:49:07.007Z,101141.78
2023-05-15T05:51:39.214Z,101121.38
2023-05-15T05:54:06.409Z,101108.75
2023-05-15T05:56:33.786Z,101105.09
2023-05-15T05:59:02.299Z,101085.69
2023-05-15T06:01:29.853Z,101070.06
2023-05-15T06:03:57.669Z,101116.81
2023-05-15T06:06:24.907Z,101067.50
2023-05-15T06:08:54.200Z,101143.06
2023-05-15T06:11:25.130Z,101143.31
2023-05-15T06:13:52.868Z,101178.53
2023-05-15T06:16:20.162Z,101176.94
2023-05-15T06:18:47.261Z,101128.00
2023-05-15T06:21:14.416Z,101150.66
2023-05-15T06:23:41.609Z,101082.53
2023-05-15T06:26:08.848Z,101100.19
2023-05-15T06:28:35.920Z,101118.50
2023-05-15T06:31:03.265Z,101092.97
2023-05-15T06:33:30.603Z,101100.06
2023-05-15T06:35:57.694Z,101050.13
2023-05-15T06:38:24.802Z,101039.91
2023-05-15T06:40:51.922Z,101111.66
2023-05-15T06:43:19.148Z,100992.06
2023-05-15T06:45:46.255Z,101082.28
2023-05-15T06:48:13.278Z,101069.31
2023-05-15T06:50:40.476Z,101054.50
2023-05-15T06:53:07.675Z,101047.41
2023-05-15T06:55:36.599Z,101002.22
2023-05-15T06:58:04.802Z,101043.56
2023-05-15T07:00:32.010Z,101031.41
2023-05-15T07:02:59.317Z,101072.06
2023-05-15T07:05:26.729Z,101072.84
2023-05-15T07:07:54.165Z,101071.56
2023-05-15T07:10:21.314Z,101062.81
2023-05-15T07:12:48.451Z,100973.22
2023-05-15T07:15:17.701Z,101065.78
2023-05-15T07:17:44.968Z,101073.97
2023-05-15T07:20:12.415Z,101046.84
2023-05-15T07:22:51.823Z,101079.59
2023-05-15T07:25:22.853Z,101076.75
2023-05-15T07:27:49.982Z,101105.25
2023-05-15T07:30:17.062Z,101093.69
2023-05-15T07:32:44.443Z,101110.75
2023-05-15T07:35:11.771Z,101098.94
2023-05-15T07:37:39.069Z,101118.25
2023-05-15T07:40:07.343Z,101061.16
2023-05-15T07:42:34.382Z,101091.25
2023-05-15T07:45:01.543Z,101104.66
2023-05-15T07:47:29.176Z,101125.38
2023-05-15T07:49:56.627Z,101123.72
2023-05-15T07:52:23.736Z,101123.09
2023-05-15T07:54:51.018Z,101073.09
2023-05-15T07:57:18.453Z,101110.53
2023-05-15T07:59:45.516Z,101103.22
2023-05-15T08:02:12.624Z,101053.34
2023-05-15T08:04:39.817Z,101084.22
2023-05-15T08:07:07.405Z,101045.84
2023-05-15T08:09:34.718Z,101060.41
2023-05-15T08:12:21.270Z,101082.59
2023-05-15T08:14:52.851Z,101085.75
2023-05-15T08:17:20.927Z,101097.72
2023-05-15T08:19:48.704Z,101098.88
2023-05-15T08:22:16.327Z,101110.69
2023-05-15T08:24:43.620Z,101082.31
2023-05-15T08:27:10.985Z,101118.09
2023-05-15T08:29:39.749Z,101117.78
2023-05-15T08:32:09.107Z,101110.09
2023-05-15T08:34:36.310Z,101101.03
2023-05-15T08:37:05.049Z,101100.03
2023-05-15T08:39:32.586Z,101103.22
2023-05-15T08:42:21.932Z,101092.81
2023-05-15T08:44:49.716Z,101120.09
2023-05-15T08:47:18.368Z,101139.41
2023-05-15T08:49:52.916Z,101146.47
2023-05-15T08:52:20.890Z,101156.34
2023-05-15T08:54:48.789Z,101145.28
2023-05-15T08:57:17.272Z,101132.72
2023-05-15T08:59:44.746Z,101062.75
2023-05-15T09:02:12.207Z,101088.84
2023-05-15T09:04:39.503Z,101062.19
2023-05-15T09:07:06.798Z,101105.66
2023-05-15T09:09:35.458Z,101113.75
2023-05-15T09:12:04.264Z,101130.53
2023-05-15T09:14:31.433Z,101103.84
2023-05-15T09:16:59.497Z,101102.59
2023-05-15T09:19:27.286Z,101115.56
2023-05-15T09:21:54.549Z,101087.13
2023-05-15T09:24:25.587Z,101129.03
2023-05-15T09:27:08.620Z,101122.47
2023-05-15T09:29:38.106Z,101113.09
2023-05-15T09:32:10.418Z,101128.00
2023-05-15T09:34:40.090Z,101111.66
2023-05-15T09:37:27.490Z,101113.50
2023-05-15T09:39:54.637Z,101098.13
2023-05-15T09:42:24.685Z,101038.50
2023-05-15T09:44:51.910Z,101088.94
2023-05-15T09:47:32.089Z,101074.94
2023-05-15T09:49:59.356Z,101089.19
2023-05-15T09:52:28.664Z,101080.69
2023-05-15T09:54:56.886Z,101076.75
2023-05-15T09:57:24.286Z,101062.50
2023-05-15T09:59:51.465Z,101058.53
2023-05-15T10:02:31.375Z,101084.56
2023-05-15T10:04:59.205Z,101086.47
2023-05-15T10:07:30.722Z,101086.22
2023-05-15T10:09:58.752Z,101081.25
2023-05-15T10:12:27.006Z,101009.91
2023-05-15T10:14:57.462Z,101075.53
2023-05-15T10:17:26.148Z,101020.03
2023-05-15T10:19:58.335Z,101066.38
2023-05-15T10:22:30.844Z,101079.75
2023-05-15T10:25:05.252Z,101046.94
2023-05-15T10:27:35.494Z,101068.56
2023-05-15T10:30:04.301Z,101021.41
2023-05-15T10:32:34.299Z,101035.88
2023-05-15T10:35:02.939Z,101038.75
2023-05-15T10:37:30.844Z,101084.41
2023-05-15T10:39:58.579Z,101067.16
2023-05-15T10:42:26.932Z,101093.81
2023-05-15T10:44:59.997Z,101060.72
2023-05-15T10:47:27.593Z,101085.00
2023-05-15T10:49:54.790Z,101092.25
2023-05-15T10:52:22.052Z,101099.06
2023-05-15T10:54:49.304Z,101127.38
2023-05-15T10:57:16.520Z,101105.38
2023-05-15T10:59:44.331Z,101082.13
2023-05-15T11:02:24.736Z,101106.56
2023-05-15T11:05:03.743Z,101086.63
2023-05-15T11:07:31.182Z,101104.22
2023-05-15T11:09:58.347Z,101105.75
2023-05-15T11:12:25.471Z,101095.88
2023-05-15T11:14:52.477Z,101111.38
2023-05-15T11:17:19.697Z,101107.69
2023-05-15T11:19:49.892Z,101093.34
2023-05-15T11:22:19.950Z,101063.47
2023-05-15T11:25:10.638Z,101048.81
2023-05-15T11:27:37.791Z,101077.16
2023-05-15T11:30:18.485Z,101049.63
2023-05-15T11:32:51.905Z,101105.44
2023-05-15T11:35:28.911Z,101064.13
2023-05-15T11:37:58.635Z,101054.75
2023-05-15T11:40:29.007Z,101040.16
2023-05-15T11:43:22.592Z,101023.44
2023-05-15T11:45:58.259Z,101032.09
2023-05-15T11:48:31.607Z,101028.41
2023-05-15T11:50:58.859Z,101000.88
2023-05-15T11:53:26.781Z,100992.59
2023-05-15T11:55:54.665Z,100948.59
2023-05-15T11:58:24.184Z,100971.97
2023-05-15T12:00:52.551Z,100963.84
2023-05-15T12:03:27.581Z,100967.00
2023-05-15T12:08:25.144Z,100946.84
2023-05-15T12:10:52.284Z,100963.34
2023-05-15T12:13:19.390Z,100945.00
2023-05-15T12:15:47.673Z,100950.50
2023-05-15T12:18:14.766Z,100945.56
2023-05-15T12:23:17.761Z,100958.63
2023-05-15T12:25:47.592Z,100923.28
2023-05-15T12:28:15.246Z,100932.72
2023-05-15T12:30:43.312Z,100943.97
2023-05-15T12:33:11.373Z,100931.66
2023-05-15T12:35:49.758Z,100931.94
2023-05-15T12:38:17.012Z,100940.00
2023-05-15T12:40:49.762Z,100948.94
2023-05-15T12:43:16.974Z,100891.13
2023-05-15T12:45:44.234Z,100945.78
2023-05-15T12:48:15.575Z,100949.72
2023-05-15T12:50:45.345Z,100915.69
2023-05-15T12:53:16.869Z,100936.63
2023-05-15T12:55:46.340Z,100933.78
2023-05-15T12:58:15.384Z,100896.38
2023-05-15T13:00:44.996Z,100924.06
2023-05-15T13:03:14.060Z,100945.03
2023-05-15T13:05:45.894Z,100926.91
2023-05-15T13:08:17.541Z,100929.28
2023-05-15T13:10:45.653Z,100909.91
2023-05-15T13:13:13.610Z,100923.22
2023-05-15T13:15:43.930Z,100913.47
2023-05-15T13:18:15.567Z,100912.91
2023-05-15T13:20:47.872Z,100899.00
2023-05-15T13:23:20.158Z,100930.88
2023-05-15T13:25:47.910Z,100830.56
2023-05-15T13:28:16.068Z,100940.53
2023-05-15T13:30:43.556Z,100865.75
2023-05-15T13:33:12.576Z,100897.03
2023-05-15T13:35:41.343Z,100898.06
2023-05-15T13:38:11.287Z,100913.63
2023-05-15T13:40:39.213Z,100914.44
2023-05-15T13:43:06.896Z,100903.81
2023-05-15T13:45:34.524Z,100872.00
2023-05-15T13:48:01.807Z,100909.94
2023-05-15T13:50:29.134Z,100894.53
2023-05-15T13:52:56.523Z,100903.34
2023-05-15T13:55:24.014Z,100888.25
2023-05-15T13:57:52.232Z,100892.94
2023-05-15T14:00:20.313Z,100880.41
2023-05-15T14:02:47.498Z,100805.22
2023-05-15T14:05:15.628Z,100899.06
2023-05-15T14:07:42.941Z,100914.22
2023-05-15T14:10:10.892Z,100835.00
2023-05-15T14:12:38.601Z,100872.00
2023-05-15T14:15:06.590Z,100890.88
2023-05-15T14:17:33.730Z,100870.09
2023-05-15T14:20:00.799Z,100836.38
2023-05-15T14:22:27.836Z,100867.19
2023-05-15T14:24:55.039Z,100773.34
2023-05-15T14:27:22.178Z,100848.56
2023-05-15T14:29:49.729Z,100811.22
2023-05-15T14:32:17.369Z,100812.53
2023-05-15T14:34:44.766Z,100885.16
2023-05-15T14:37:12.136Z,100861.59
2023-05-15T14:39:39.306Z,100851.91
2023-05-15T14:42:06.982Z,100865.75
2023-05-15T14:44:35.125Z,100849.06
2023-05-15T14:47:10.098Z,100846.91
2023-05-15T14:49:37.902Z,100825.44
2023-05-15T14:52:07.769Z,100862.06
2023-05-15T14:54:38.181Z,100881.75
2023-05-15T14:57:05.728Z,100880.94
2023-05-15T14:59:32.798Z,100864.22
2023-05-15T15:01:59.882Z,100894.56
2023-05-15T15:04:29.189Z,100882.53
2023-05-15T15:06:59.048Z,100877.84
2023-05-15T15:09:28.364Z,100878.91
2023-05-15T15:11:56.179Z,100892.25
2023-05-15T15:14:23.413Z,100891.00
2023-05-15T15:16:50.746Z,100892.50
2023-05-15T15:19:19.947Z,100846.66
2023-05-15T15:21:47.822Z,100847.91
2023-05-15T15:24:16.831Z,100887.69
2023-05-15T15:26:44.004Z,100878.91
2023-05-15T15:29:11.067Z,100874.97
2023-05-15T15:31:38.356Z,100881.81
2023-05-15T15:34:05.902Z,100891.78
2023-05-15T15:36:33.177Z,100878.97
2023-05-15T15:39:00.270Z,100847.59
2023-05-15T15:41:31.600Z,100858.53
2023-05-15T15:43:58.851Z,100845.19
2023-05-15T15:46:25.949Z,100835.25
2023-05-15T15:48:53.310Z,100852.78
2023-05-15T15:51:20.399Z,100869.53
2023-05-15T15:53:47.662Z,100872.16
2023-05-15T15:56:14.832Z,100863.78
2023-05-15T15:58:42.027Z,100855.94
2023-05-15T16:01:09.415Z,100845.75
2023-05-15T16:03:36.659Z,100842.88
2023-05-15T16:06:03.806Z,100841.00
2023-05-15T16:08:31.009Z,100823.75
2023-05-15T16:10:58.103Z,100826.38
2023-05-15T16:13:25.278Z,100836.84
2023-05-15T16:15:52.288Z,100840.00
2023-05-15T16:18:19.315Z,100830.34
2023-05-15T16:20:47.924Z,100842.13
2023-05-15T16:23:16.440Z,100818.66
2023-05-15T16:25:45.284Z,100870.97
2023-05-15T16:28:12.403Z,100881.19
2023-05-15T16:30:48.797Z,100896.09
2023-05-15T16:33:18.111Z,100896.13
2023-05-15T16:35:46.018Z,100884.88
2023-05-15T16:38:13.831Z,100905.00
2023-05-15T16:40:41.398Z,100902.91
2023-05-15T16:43:08.578Z,100903.44
2023-05-15T16:45:35.825Z,100923.03
2023-05-15T16:48:03.221Z,100897.16
2023-05-15T16:50:36.200Z,100920.44
2023-05-15T16:53:04.616Z,100937.41
2023-05-15T16:55:32.513Z,100943.16
2023-05-15T16:57:59.635Z,100949.69
2023-05-15T17:00:27.326Z,100960.59
2023-05-15T17:02:55.044Z,100961.94
2023-05-15T17:05:22.120Z,100961.69
2023-05-15T17:07:49.184Z,100931.34
2023-05-15T17:10:16.370Z,100918.81
2023-05-15T17:12:43.590Z,100931.41
2023-05-15T17:15:11.671Z,100906.25
2023-05-15T17:17:38.898Z,100881.41
2023-05-15T17:20:06.856Z,100891.41
2023-05-15T17:22:34.083Z,100882.50
2023-05-15T17:25:01.128Z,100883.28
2023-05-15T17:27:28.196Z,100856.34
2023-05-15T17:29:55.246Z,100856.38
2023-05-15T17:32:22.819Z,100877.28
2023-05-15T17:34:52.775Z,100865.78
2023-05-15T17:37:20.101Z,100866.03
2023-05-15T17:39:47.206Z,100859.47
2023-05-15T17:42:14.376Z,100841.72
2023-05-15T17:44:41.435Z,100828.91
2023-05-15T17:47:10.307Z,100834.91
2023-05-15T17:49:38.838Z,100825.50
2023-05-15T17:52:07.340Z,100855.06
2023-05-15T17:54:34.438Z,100878.53
2023-05-15T17:57:01.528Z,100864.69
2023-05-15T17:59:31.155Z,100846.88
2023-05-15T18:01:58.774Z,100843.50
2023-05-15T18:04:26.130Z,100856.09
2023-05-15T18:06:53.360Z,100840.13
2023-05-15T18:09:24.557Z,100830.22
2023-05-15T18:11:52.022Z,100836.50
2023-05-15T18:14:19.091Z,100845.94
2023-05-15T18:16:46.158Z,100850.34
2023-05-15T18:19:13.460Z,100857.69
2023-05-15T18:21:40.718Z,100846.19
2023-05-15T18:24:07.835Z,100823.94
2023-05-15T18:26:34.934Z,100803.28
2023-05-15T18:29:02.148Z,100844.34
2023-05-15T18:31:29.326Z,100841.97
2023-05-15T18:33:56.472Z,100850.09
2023-05-15T18:36:23.588Z,100874.09
2023-05-15T18:38:50.919Z,100838.28
2023-05-15T18:41:17.947Z,100853.19
2023-05-15T18:43:45.019Z,100844.56
2023-05-15T18:46:12.047Z,100869.16
2023-05-15T18:48:39.143Z,100863.91
2023-05-15T18:51:06.296Z,100855.03
2023-05-15T18:53:33.446Z,100852.72
2023-05-15T18:56:00.476Z,100863.69
2023-05-15T18:58:27.548Z,100860.03
2023-05-15T19:00:56.638Z,100879.91
2023-05-15T19:03:25.766Z,100908.13
2023-05-15T19:05:53.118Z,100869.91
2023-05-15T19:08:20.115Z,100899.97
2023-05-15T19:10:51.022Z,100874.63
2023-05-15T19:13:19.042Z,100856.59
2023-05-15T19:15:53.351Z,100853.16
2023-05-15T19:18:20.708Z,100882.47
2023-05-15T19:20:52.197Z,100879.59
2023-05-15T19:23:20.803Z,100870.69
2023-05-15T19:25:48.378Z,100842.22
2023-05-15T19:28:15.483Z,100803.25
2023-05-15T19:30:42.727Z,100809.75
2023-05-15T19:33:09.998Z,100866.50
2023-05-15T19:35:37.795Z,100859.16
2023-05-15T19:38:04.972Z,100871.19
2023-05-15T19:40:32.147Z,100867.78
2023-05-15T19:42:59.329Z,100871.72
2023-05-15T19:45:26.452Z,100861.78
2023-05-15T19:47:53.570Z,100869.88
2023-05-15T19:50:20.687Z,100881.41
2023-05-15T19:52:47.802Z,100885.56
2023-05-15T19:55:15.108Z,100891.31
2023-05-15T19:57:44.979Z,100891.31
2023-05-15T20:00:12.846Z,100892.88
2023-05-15T20:02:41.419Z,100889.22
2023-05-15T20:05:09.287Z,100898.38
2023-05-15T20:07:36.964Z,100877.97
2023-05-15T20:10:04.878Z,100894.19
2023-05-15T20:12:31.866Z,100885.56
2023-05-15T20:14:58.940Z,100862.81
2023-05-15T20:17:26.082Z,100867.28
2023-05-15T20:19:53.951Z,100864.91
2023-05-15T20:22:21.221Z,100862.84
2023-05-15T20:24:48.518Z,100856.56
2023-05-15T20:27:15.658Z,100855.50
2023-05-15T20:29:43.916Z,100819.16
2023-05-15T20:32:13.268Z,100848.94
2023-05-15T20:34:42.677Z,100855.50
2023-05-15T20:37:11.633Z,100743.22
2023-05-15T20:39:39.539Z,100780.59
2023-05-15T20:42:07.158Z,100816.72
2023-05-15T20:44:36.530Z,100784.25
2023-05-15T20:47:04.119Z,100838.69
2023-05-15T20:49:32.066Z,100848.91
2023-05-15T20:52:00.413Z,100838.19
2023-05-15T20:54:27.514Z,100802.34
2023-05-15T20:56:54.616Z,100832.72
2023-05-15T20:59:21.929Z,100784.78
2023-05-15T21:01:50.813Z,100817.75
2023-05-15T21:04:17.988Z,100792.16
2023-05-15T21:06:45.797Z,100830.06
2023-05-15T21:09:14.520Z,100755.16
2023-05-15T21:11:42.153Z,100830.25
2023-05-15T21:14:09.330Z,100825.53
2023-05-15T21:16:36.532Z,100820.31
2023-05-15T21:19:03.766Z,100741.50
2023-05-15T21:21:31.167Z,100802.47
2023-05-15T21:24:03.486Z,100839.53
2023-05-15T21:26:30.847Z,100833.69
2023-05-15T21:29:01.446Z,100824.34
2023-05-15T21:31:28.547Z,100817.00
2023-05-15T21:33:56.047Z,100724.38
2023-05-15T21:36:23.258Z,100795.44
2023-05-15T21:38:50.537Z,100815.09
2023-05-15T21:41:17.732Z,100816.41
2023-05-15T21:43:44.898Z,100788.16
2023-05-15T21:46:12.103Z,100769.53
2023-05-15T21:48:39.768Z,100812.47
2023-05-15T21:51:06.837Z,100781.97
2023-05-15T21:53:33.981Z,100818.34
2023-05-15T21:56:01.838Z,100768.34
2023-05-15T21:58:29.217Z,100824.31
2023-05-15T22:00:56.309Z,100806.44
2023-05-15T22:03:23.934Z,100750.00
2023-05-15T22:05:53.014Z,100780.66
2023-05-15T22:08:20.640Z,100822.28
2023-05-15T22:10:48.947Z,100828.00
2023-05-15T22:13:16.139Z,100835.13
2023-05-15T22:15:43.392Z,100783.44
2023-05-15T22:18:10.726Z,100798.31
2023-05-15T22:20:37.977Z,100835.28
2023-05-15T22:23:05.587Z,100844.66
2023-05-15T22:25:32.994Z,100835.44
2023-05-15T22:28:00.096Z,100833.91
2023-05-15T22:30:27.560Z,100841.72
2023-05-15T22:32:54.980Z,100837.53
2023-05-15T22:35:22.343Z,100785.19
2023-05-15T22:37:49.473Z,100824.78
2023-05-15T22:40:16.755Z,100841.50
2023-05-15T22:42:43.986Z,100795.75
2023-05-15T22:45:11.651Z,100819.84
2023-05-15T22:47:38.721Z,100762.72
2023-05-15T22:50:06.642Z,100788.28
2023-05-15T22:52:33.779Z,100800.28
2023-05-15T22:55:00.889Z,100817.34
2023-05-15T22:57:28.456Z,100819.13
2023-05-15T22:59:55.671Z,100829.81
2023-05-15T23:02:22.768Z,100827.72
2023-05-15T23:04:49.788Z,100769.38
2023-05-15T23:07:17.441Z,100833.28
2023-05-15T23:09:44.487Z,100824.97
2023-05-15T23:12:11.519Z,100723.63
2023-05-15T23:14:38.709Z,100824.19
2023-05-15T23:17:05.879Z,100779.19
2023-05-15T23:19:32.913Z,100805.97
2023-05-15T23:22:00.060Z,100815.38
2023-05-15T23:24:27.149Z,100708.31
2023-05-15T23:26:54.220Z,100818.78
2023-05-15T23:29:21.212Z,100793.44
2023-05-15T23:31:48.170Z,100784.78
2023-05-15T23:34:15.171Z,100815.44
2023-05-15T23:36:42.385Z,100754.25
2023-05-15T23:39:09.468Z,100797.28
2023-05-15T23:41:36.593Z,100785.06
2023-05-15T23:44:03.909Z,100792.16
2023-05-15T23:46:31.270Z,100795.28
2023-05-15T23:48:58.520Z,100777.13
2023-05-15T23:51:25.587Z,100758.94
2023-05-15T23:53:52.745Z,100783.22
2023-05-15T23:56:19.828Z,100793.31
2023-05-15T23:58:46.850Z,100796.47
